Time;durP1;ratioP1;P1;durP2;ratioP2;P2;SDS_P1;SDS_P2;PMS_P1;PMS_P2;Temp;Humidity;BMP_temperature;BMP_pressure;BME280_temperature;BME280_humidity;BME280_pressure;Samples;Min_cycle;Max_cycle;Signal;HPM_P1;HPM_P2
2024/03/27 00:01:36;;;;;;;57.83;8.40;;;;;;;5.80;100.00;95262.13;4947625;28;20051;-58
2024/03/27 00:04:01;;;;;;;80.57;9.05;;;;;;;5.71;100.00;95262.34;4948423;28;20125;-59
2024/03/27 00:06:27;;;;;;;74.95;21.67;;;;;;;5.57;100.00;95260.19;4947093;28;20070;-59
2024/03/27 00:08:52;;;;;;;44.22;7.07;;;;;;;5.51;100.00;95258.63;4948908;28;20141;-59
2024/03/27 00:11:20;;;;;;;83.80;10.30;;;;;;;5.39;100.00;95253.78;4946368;28;20031;-59
2024/03/27 00:13:46;;;;;;;59.13;8.32;;;;;;;5.40;100.00;95258.03;4948156;28;20022;-60
2024/03/27 00:16:11;;;;;;;74.70;9.38;;;;;;;5.50;100.00;95256.94;4946574;28;20663;-61
2024/03/27 00:18:36;;;;;;;65.80;8.38;;;;;;;5.44;100.00;95257.06;4948328;28;20047;-58
2024/03/27 00:21:02;;;;;;;62.63;8.07;;;;;;;5.43;100.00;95258.81;4947600;28;20066;-58
2024/03/27 00:23:27;;;;;;;58.70;7.70;;;;;;;5.47;100.00;95257.00;4947239;28;20032;-59
2024/03/27 00:25:56;;;;;;;68.70;9.73;;;;;;;5.47;100.00;95257.00;4947683;28;20059;-60
2024/03/27 00:28:21;;;;;;;74.75;9.07;;;;;;;5.52;100.00;95255.13;4947868;28;20034;-59
2024/03/27 00:30:47;;;;;;;47.20;7.85;;;;;;;5.50;100.00;95261.22;4947289;28;20035;-59
2024/03/27 00:33:14;;;;;;;86.43;10.13;;;;;;;5.37;100.00;95264.13;4977352;28;20030;-59
2024/03/27 00:35:39;;;;;;;60.33;8.00;;;;;;;5.38;100.00;95252.94;4945982;28;20035;-58
2024/03/27 00:38:05;;;;;;;60.42;10.80;;;;;;;5.20;100.00;95255.09;4949970;28;20428;-61
2024/03/27 00:40:30;;;;;;;66.10;8.52;;;;;;;5.15;100.00;95251.81;4945204;28;20035;-59
2024/03/27 00:42:55;;;;;;;53.83;7.47;;;;;;;5.18;100.00;95250.88;4947881;28;20073;-58
2024/03/27 00:45:21;;;;;;;79.20;10.32;;;;;;;5.02;100.00;95253.00;4946533;28;20019;-58
2024/03/27 00:47:46;;;;;;;72.03;9.10;;;;;;;4.93;100.00;95262.66;4947407;28;20443;-60
2024/03/27 00:50:11;;;;;;;75.05;9.48;;;;;;;5.01;100.00;95252.16;4946743;28;20041;-59
2024/03/27 00:52:37;;;;;;;62.55;8.35;;;;;;;5.14;100.00;95254.41;4947922;28;20510;-59
2024/03/27 00:55:02;;;;;;;47.45;8.52;;;;;;;5.16;100.00;95256.06;4948926;28;20198;-61
2024/03/27 00:57:27;;;;;;;95.85;10.27;;;;;;;5.07;100.00;95252.03;4964566;28;20570;-60
2024/03/27 00:59:53;;;;;;;62.90;8.43;;;;;;;5.17;100.00;95255.22;4966043;28;20458;-63
2024/03/27 01:02:18;;;;;;;67.82;14.75;;;;;;;5.26;100.00;95251.53;4965040;28;20046;-61
2024/03/27 01:04:48;;;;;;;66.32;8.65;;;;;;;5.25;100.00;95243.84;4964465;28;20475;-58
2024/03/27 01:07:13;;;;;;;59.55;9.35;;;;;;;5.41;100.00;95252.84;4965487;28;20035;-59
2024/03/27 01:09:39;;;;;;;58.65;11.27;;;;;;;5.26;100.00;95248.94;4966926;28;20042;-59
2024/03/27 01:12:05;;;;;;;63.63;8.30;;;;;;;5.35;100.00;95250.47;4964194;28;20043;-60
2024/03/27 01:14:30;;;;;;;55.80;8.77;;;;;;;5.42;100.00;95243.41;4965138;28;20128;-60
2024/03/27 01:16:57;;;;;;;57.50;8.05;;;;;;;5.54;100.00;95243.06;4965797;28;20598;-61
2024/03/27 01:19:22;;;;;;;87.63;12.43;;;;;;;5.51;100.00;95237.13;4965948;28;20029;-62
2024/03/27 01:21:48;;;;;;;54.88;12.25;;;;;;;5.43;100.00;95233.06;4965462;28;20042;-59
2024/03/27 01:24:13;;;;;;;65.22;11.02;;;;;;;5.21;100.00;95231.03;4965022;28;20085;-59
2024/03/27 01:26:38;;;;;;;67.45;8.05;;;;;;;5.31;100.00;95223.06;4970149;28;20065;-58
2024/03/27 01:29:04;;;;;;;56.22;10.40;;;;;;;5.18;100.00;95225.97;4970103;28;20032;-60
2024/03/27 01:31:29;;;;;;;50.67;9.30;;;;;;;5.27;100.00;95211.97;4968465;28;20034;-61
2024/03/27 01:33:54;;;;;;;59.05;8.52;;;;;;;5.38;100.00;95216.03;4972234;28;20320;-59
2024/03/27 01:36:19;;;;;;;80.65;11.82;;;;;;;5.46;100.00;95211.50;4970395;28;20100;-58
2024/03/27 01:38:45;;;;;;;43.88;9.20;;;;;;;5.42;100.00;95207.31;4971206;28;20156;-59
2024/03/27 01:41:11;;;;;;;57.13;9.68;;;;;;;5.31;100.00;95203.28;4971081;28;20119;-60
2024/03/27 01:43:36;;;;;;;62.58;10.05;;;;;;;5.42;100.00;95199.59;4970777;28;20026;-59
2024/03/27 01:46:08;;;;;;;57.47;10.18;;;;;;;5.60;100.00;95199.06;4971463;28;20034;-60
2024/03/27 01:48:33;;;;;;;59.20;9.10;;;;;;;5.55;100.00;95182.03;4971706;28;20616;-61
2024/03/27 01:50:59;;;;;;;67.20;11.52;;;;;;;5.59;100.00;95179.31;4969399;28;20470;-63
2024/03/27 01:53:24;;;;;;;91.63;31.92;;;;;;;5.61;100.00;95171.53;4969848;28;20041;-60
2024/03/27 01:55:50;;;;;;;61.75;10.38;;;;;;;5.67;100.00;95168.78;4969602;28;20035;-60
2024/03/27 01:58:15;;;;;;;58.63;10.05;;;;;;;5.73;100.00;95173.75;4969078;28;20138;-58
2024/03/27 02:00:41;;;;;;;60.03;9.77;;;;;;;5.80;100.00;95164.13;4968924;28;20097;-60
2024/03/27 02:03:08;;;;;;;63.40;10.23;;;;;;;5.84;100.00;95165.72;4969246;28;20030;-58
2024/03/27 02:05:34;;;;;;;80.10;9.95;;;;;;;5.88;100.00;95152.69;4969900;28;20054;-59
2024/03/27 02:08:00;;;;;;;60.13;9.85;;;;;;;5.84;100.00;95146.81;4968434;28;20495;-58
2024/03/27 02:10:25;;;;;;;89.47;10.88;;;;;;;5.85;100.00;95153.63;4967970;28;20050;-58
2024/03/27 02:12:50;;;;;;;70.88;11.50;;;;;;;5.73;100.00;95152.28;4969128;28;20461;-58
2024/03/27 02:15:17;;;;;;;67.10;10.50;;;;;;;5.70;100.00;95137.75;4970282;28;20049;-59
2024/03/27 02:17:43;;;;;;;74.15;11.63;;;;;;;5.64;100.00;95134.50;4969349;28;20033;-58
2024/03/27 02:20:09;;;;;;;72.13;11.07;;;;;;;5.58;100.00;95136.41;4969208;28;20061;-60
2024/03/27 02:22:34;;;;;;;58.63;9.75;;;;;;;5.58;100.00;95126.06;4968821;28;20141;-59
2024/03/27 02:25:24;;;;;;;61.53;11.77;;;;;;;5.55;100.00;95120.16;4969516;28;20126;-59
2024/03/27 02:27:49;;;;;;;64.30;11.05;;;;;;;5.58;100.00;95104.59;4949789;28;20035;-59
2024/03/27 02:30:15;;;;;;;67.35;16.80;;;;;;;5.62;100.00;95095.03;4947976;28;20026;-60
2024/03/27 02:32:40;;;;;;;66.53;9.88;;;;;;;5.72;100.00;95096.44;4948864;28;20022;-59
2024/03/27 02:35:06;;;;;;;60.20;8.82;;;;;;;5.85;100.00;95102.06;4950906;28;20125;-58
2024/03/27 02:37:31;;;;;;;83.75;11.40;;;;;;;5.90;100.00;95089.84;4947716;28;20023;-59
2024/03/27 02:39:56;;;;;;;68.22;9.95;;;;;;;5.95;100.00;95087.13;4951102;28;20029;-59
2024/03/27 02:42:22;;;;;;;69.82;9.43;;;;;;;5.96;100.00;95078.50;4948610;28;20034;-61
2024/03/27 02:44:47;;;;;;;54.10;8.93;;;;;;;5.97;100.00;95075.03;4950763;28;20434;-59
2024/03/27 02:47:12;;;;;;;54.83;9.27;;;;;;;6.02;100.00;95074.88;4948936;28;20098;-59
2024/03/27 02:49:38;;;;;;;57.17;9.60;;;;;;;5.94;100.00;95065.66;4950335;28;20023;-60
2024/03/27 02:52:03;;;;;;;62.60;9.90;;;;;;;6.03;100.00;95058.50;4947422;28;20284;-58
2024/03/27 02:54:28;;;;;;;77.93;11.27;;;;;;;5.95;100.00;95054.47;4949747;28;20019;-58
2024/03/27 02:56:54;;;;;;;60.78;9.57;;;;;;;5.94;100.00;95057.91;4980965;28;20050;-59
2024/03/27 02:59:19;;;;;;;78.38;11.23;;;;;;;5.98;100.00;95045.78;4949608;28;20023;-58
2024/03/27 03:01:45;;;;;;;62.35;21.58;;;;;;;6.05;100.00;95042.13;4949064;28;20348;-60
2024/03/27 03:04:10;;;;;;;88.30;44.65;;;;;;;6.17;100.00;95040.88;4947519;28;20031;-58
2024/03/27 03:06:36;;;;;;;78.25;45.22;;;;;;;6.21;100.00;95037.31;4948631;28;20130;-59
2024/03/27 03:09:02;;;;;;;85.65;55.33;;;;;;;6.34;100.00;95037.72;4948395;28;20035;-60
2024/03/27 03:11:27;;;;;;;123.93;63.08;;;;;;;6.37;100.00;95035.03;4946885;28;20423;-61
2024/03/27 03:13:53;;;;;;;79.13;26.63;;;;;;;6.34;100.00;95029.97;4949648;28;20027;-59
2024/03/27 03:16:19;;;;;;;57.05;16.33;;;;;;;6.42;100.00;95028.88;4948257;28;20031;-60
2024/03/27 03:18:48;;;;;;;73.78;35.58;;;;;;;6.46;100.00;95033.03;4949506;28;20037;-58
2024/03/27 03:21:13;;;;;;;59.85;9.35;;;;;;;6.44;100.00;95039.97;4948918;28;20035;-59
2024/03/27 03:23:39;;;;;;;49.10;7.10;;;;;;;6.48;100.00;95044.16;4948758;28;20023;-58
2024/03/27 03:26:04;;;;;;;60.58;10.98;;;;;;;6.50;100.00;95043.19;4948646;28;20206;-60
2024/03/27 03:28:29;;;;;;;98.07;27.92;;;;;;;6.51;100.00;95046.63;4948151;28;20042;-59
2024/03/27 03:31:04;;;;;;;68.05;8.05;;;;;;;6.51;100.00;95046.63;4948853;28;20615;-62
2024/03/27 03:33:30;;;;;;;83.78;10.15;;;;;;;6.47;100.00;95057.97;4950098;28;20030;-58
2024/03/27 03:35:56;;;;;;;54.33;7.53;;;;;;;6.43;100.00;95059.81;4949480;28;20039;-59
2024/03/27 03:38:22;;;;;;;72.68;9.48;;;;;;;6.39;100.00;95065.97;4949914;28;20031;-58
2024/03/27 03:40:55;;;;;;;50.03;8.52;;;;;;;6.38;100.00;95064.25;4947885;28;20471;-60
2024/03/27 03:43:20;;;;;;;68.25;8.77;;;;;;;6.35;100.00;95054.06;4947218;28;20031;-58
2024/03/27 03:45:46;;;;;;;72.70;36.10;;;;;;;6.36;100.00;95060.91;4949708;28;20069;-59
2024/03/27 03:48:11;;;;;;;61.50;15.77;;;;;;;6.47;100.00;95063.97;4949611;28;20584;-58
2024/03/27 03:50:36;;;;;;;68.32;8.95;;;;;;;6.51;100.00;95056.97;4978306;28;20086;-60
2024/03/27 03:53:02;;;;;;;58.13;12.77;;;;;;;6.51;100.00;95062.13;4951487;28;20085;-61
2024/03/27 03:55:27;;;;;;;91.82;19.30;;;;;;;6.46;100.00;95064.84;4948029;28;20586;-58
2024/03/27 03:57:53;;;;;;;78.50;10.32;;;;;;;6.50;100.00;95063.03;4947992;28;20043;-58
2024/03/27 04:00:21;;;;;;;55.15;7.82;;;;;;;6.45;100.00;95070.91;4947603;28;20070;-60
2024/03/27 04:02:47;;;;;;;52.63;8.85;;;;;;;6.36;100.00;95071.22;4948973;28;20102;-59
2024/03/27 04:05:12;;;;;;;63.03;8.48;;;;;;;6.38;100.00;95077.16;4948233;28;20038;-60
2024/03/27 04:07:38;;;;;;;55.03;7.97;;;;;;;6.32;100.00;95069.66;4948218;28;20018;-60
2024/03/27 04:10:03;;;;;;;47.42;8.23;;;;;;;6.27;100.00;95067.22;4946801;28;20545;-62
2024/03/27 04:12:29;;;;;;;81.32;12.85;;;;;;;6.18;100.00;95062.34;4944597;28;20062;-59
2024/03/27 04:14:55;;;;;;;58.63;9.05;;;;;;;6.26;100.00;95047.47;4947283;28;20533;-60
2024/03/27 04:17:20;;;;;;;66.53;9.00;;;;;;;6.31;100.00;95050.72;4948339;28;20047;-60
2024/03/27 04:19:45;;;;;;;69.70;8.60;;;;;;;6.34;100.00;95062.69;4947475;28;20074;-60
2024/03/27 04:22:11;;;;;;;42.20;7.75;;;;;;;6.35;100.00;95059.22;4946559;28;20087;-60
2024/03/27 04:24:36;;;;;;;64.38;8.57;;;;;;;6.36;100.00;95050.59;4946148;28;20081;-61
2024/03/27 04:27:02;;;;;;;66.25;8.10;;;;;;;6.25;100.00;95038.91;4944813;28;20505;-58
2024/03/27 04:29:27;;;;;;;77.82;8.65;;;;;;;6.21;100.00;95041.63;4945662;28;20030;-60
2024/03/27 04:31:54;;;;;;;52.40;7.50;;;;;;;6.21;100.00;95037.31;4944936;28;20039;-59
2024/03/27 04:34:19;;;;;;;58.22;7.78;;;;;;;6.27;100.00;95043.16;4946832;28;20583;-60
2024/03/27 04:36:44;;;;;;;54.40;7.68;;;;;;;6.22;100.00;95032.97;4953609;28;20126;-60
2024/03/27 04:39:10;;;;;;;63.65;9.43;;;;;;;6.25;100.00;95023.41;4948517;28;20035;-60
2024/03/27 04:41:35;;;;;;;95.70;13.30;;;;;;;6.31;100.00;95013.75;4946248;28;20225;-58
2024/03/27 04:44:00;;;;;;;79.15;35.67;;;;;;;6.33;100.00;95004.22;4946793;28;20037;-60
2024/03/27 04:46:26;;;;;;;81.97;10.25;;;;;;;6.42;100.00;95013.41;4947604;28;20101;-58
2024/03/27 04:48:51;;;;;;;49.78;7.72;;;;;;;6.43;100.00;95003.03;4949380;28;20546;-60
2024/03/27 04:51:16;;;;;;;53.50;7.63;;;;;;;6.42;100.00;95003.06;4947266;28;20051;-59
2024/03/27 04:53:42;;;;;;;53.10;7.53;;;;;;;6.45;100.00;94995.19;4946503;28;20133;-60
2024/03/27 04:56:07;;;;;;;47.20;7.75;;;;;;;6.42;100.00;94992.75;4945939;28;20053;-59
2024/03/27 04:58:32;;;;;;;92.50;11.07;;;;;;;6.43;100.00;94979.78;4945876;28;20014;-58
2024/03/27 05:00:58;;;;;;;65.25;7.82;;;;;;;6.40;100.00;94974.72;4946025;28;20033;-59
2024/03/27 05:03:23;;;;;;;63.50;10.40;;;;;;;6.42;100.00;94987.59;4946491;28;20560;-58
2024/03/27 05:05:48;;;;;;;67.45;9.00;;;;;;;6.49;100.00;94973.53;4945283;28;20041;-60
2024/03/27 05:08:14;;;;;;;61.05;27.27;;;;;;;6.56;100.00;94974.16;4947675;28;20412;-59
2024/03/27 05:10:40;;;;;;;88.50;10.70;;;;;;;6.62;100.00;94979.13;4945170;28;20641;-59
2024/03/27 05:13:05;;;;;;;76.82;9.75;;;;;;;6.61;100.00;94975.69;4946474;28;20081;-58
2024/03/27 05:15:31;;;;;;;85.93;9.98;;;;;;;6.71;100.00;94973.63;4946875;28;20146;-61
2024/03/27 05:17:57;;;;;;;66.72;9.45;;;;;;;6.75;100.00;94969.16;4946457;28;20426;-61
2024/03/27 05:20:23;;;;;;;56.72;11.73;;;;;;;6.86;100.00;94954.13;4943682;28;20552;-59
2024/03/27 05:22:48;;;;;;;82.97;50.47;;;;;;;6.96;100.00;94954.63;4948783;28;20108;-60
2024/03/27 05:25:14;;;;;;;47.67;7.63;;;;;;;7.16;100.00;94950.41;4947140;28;20725;-61
2024/03/27 05:27:39;;;;;;;91.20;11.80;;;;;;;7.21;100.00;94950.25;4945333;28;20033;-60
2024/03/27 05:30:05;;;;;;;65.03;8.13;;;;;;;7.35;100.00;94953.13;4946595;28;20654;-59
2024/03/27 05:32:30;;;;;;;84.90;14.23;;;;;;;7.43;100.00;94958.84;4947566;28;20032;-58
2024/03/27 05:34:55;;;;;;;64.68;10.32;;;;;;;7.52;100.00;94960.22;4949043;28;20019;-59
2024/03/27 05:37:21;;;;;;;61.63;12.32;;;;;;;7.66;100.00;94962.25;4977227;28;20163;-61
2024/03/27 05:39:46;;;;;;;56.13;8.07;;;;;;;7.88;100.00;94965.72;4947906;28;20550;-59
2024/03/27 05:42:12;;;;;;;38.42;6.60;;;;;;;8.11;100.00;94962.16;4946201;28;20466;-59
2024/03/27 05:44:37;;;;;;;88.15;10.15;;;;;;;8.27;100.00;94966.66;4945314;28;20057;-60
2024/03/27 05:47:03;;;;;;;51.47;7.43;;;;;;;8.53;100.00;94968.16;4946737;28;20034;-60
2024/03/27 05:49:29;;;;;;;83.05;10.07;;;;;;;8.75;100.00;94956.03;4945814;28;20332;-62
2024/03/27 05:51:54;;;;;;;66.45;10.98;;;;;;;9.17;100.00;94957.53;4947456;28;20193;-59
2024/03/27 05:54:20;;;;;;;42.10;9.50;;;;;;;9.57;100.00;94951.41;4949061;28;20465;-61
2024/03/27 05:56:45;;;;;;;55.45;9.07;;;;;;;10.13;100.00;94952.09;4947946;28;20530;-61
2024/03/27 05:59:10;;;;;;;61.53;13.45;;;;;;;10.51;100.00;94951.06;4945228;28;20030;-61
2024/03/27 06:01:36;;;;;;;79.45;13.27;;;;;;;11.33;100.00;94938.06;4943330;28;20036;-62
2024/03/27 06:04:01;;;;;;;55.50;14.02;;;;;;;11.76;100.00;94940.94;4946667;28;20026;-59
2024/03/27 06:06:27;;;;;;;63.75;11.25;;;;;;;12.34;100.00;94941.94;4945614;28;20097;-62
2024/03/27 06:08:52;;;;;;;51.47;10.68;;;;;;;13.35;100.00;94944.56;4949983;28;20026;-60
2024/03/27 06:11:18;;;;;;;50.40;8.63;;;;;;;15.66;81.44;94945.69;4946992;28;20039;-58
2024/03/27 06:13:43;;;;;;;76.95;9.95;;;;;;;17.02;63.28;94933.00;4947969;28;20063;-62
2024/03/27 06:16:09;;;;;;;40.20;7.82;;;;;;;15.72;61.40;94933.94;4949506;28;20450;-60
2024/03/27 06:18:35;;;;;;;85.30;10.45;;;;;;;14.96;66.23;94940.97;4947079;28;20098;-61
2024/03/27 06:21:00;;;;;;;38.65;6.78;;;;;;;15.07;66.94;94932.38;4950907;28;20081;-61
2024/03/27 06:23:26;;;;;;;49.88;7.72;;;;;;;14.58;71.21;94945.28;4946766;28;20317;-59
2024/03/27 06:25:58;;;;;;;48.42;7.13;;;;;;;14.97;67.85;94941.81;4948723;28;20191;-60
2024/03/27 06:28:24;;;;;;;48.17;7.20;;;;;;;15.93;65.33;94943.78;4949210;28;20435;-60
2024/03/27 06:30:56;;;;;;;48.92;8.02;;;;;;;17.16;55.47;94932.81;4947069;28;20523;-60
2024/03/27 06:33:21;;;;;;;33.53;7.15;;;;;;;18.03;53.59;94926.78;4951662;28;20019;-60
2024/03/27 06:35:47;;;;;;;45.22;7.25;;;;;;;19.39;47.85;94921.56;4946706;28;20041;-63
2024/03/27 06:38:13;;;;;;;44.05;7.20;;;;;;;19.89;46.19;94919.81;4949978;28;20596;-61
2024/03/27 06:40:39;;;;;;;82.00;9.80;;;;;;;20.87;43.03;94926.81;4946722;28;20035;-61
2024/03/27 06:43:05;;;;;;;49.83;7.53;;;;;;;20.38;43.27;94919.78;4949827;28;20070;-61
2024/03/27 06:45:30;;;;;;;67.20;8.48;;;;;;;20.96;43.56;94927.72;4947444;28;20138;-60
2024/03/27 06:47:55;;;;;;;43.30;7.03;;;;;;;21.17;41.20;94929.31;4948851;28;20026;-59
2024/03/27 06:50:21;;;;;;;36.97;6.00;;;;;;;20.89;41.68;94927.47;4947781;28;20027;-61
2024/03/27 06:52:46;;;;;;;42.72;6.95;;;;;;;21.77;40.43;94930.66;4947088;28;20489;-61
2024/03/27 06:55:11;;;;;;;40.47;6.07;;;;;;;23.60;37.61;94925.72;4948918;28;20673;-61
2024/03/27 06:57:37;;;;;;;66.00;7.97;;;;;;;24.21;36.79;94920.19;4947932;28;20106;-62
2024/03/27 07:00:04;;;;;;;33.92;6.10;;;;;;;24.50;35.50;94918.81;4948814;28;20217;-61
2024/03/27 07:02:30;;;;;;;38.60;6.55;;;;;;;22.48;37.23;94930.75;4945226;28;20035;-62
2024/03/27 07:04:55;;;;;;;34.42;6.22;;;;;;;21.88;39.31;94931.41;4949077;28;20506;-64
2024/03/27 07:07:21;;;;;;;42.13;6.38;;;;;;;21.44;40.69;94931.13;4946824;28;20043;-59
2024/03/27 07:09:46;;;;;;;64.50;7.95;;;;;;;20.35;41.69;94919.25;4946374;28;20031;-59
2024/03/27 07:12:11;;;;;;;38.00;6.03;;;;;;;22.09;39.97;94915.25;4948102;28;20042;-62
2024/03/27 07:14:37;;;;;;;62.22;8.55;;;;;;;22.26;40.16;94904.78;4948541;28;20074;-62
2024/03/27 07:17:02;;;;;;;31.27;5.60;;;;;;;24.45;39.71;94905.22;4947136;28;20288;-63
2024/03/27 07:19:28;;;;;;;39.78;6.88;;;;;;;23.52;43.76;94898.16;4947827;28;20023;-61
2024/03/27 07:21:54;;;;;;;34.78;6.18;;;;;;;22.20;41.36;94896.44;4946050;28;20372;-62
2024/03/27 07:24:19;;;;;;;33.95;5.70;;;;;;;21.56;40.43;94889.44;4948612;28;20444;-63
2024/03/27 07:26:44;;;;;;;62.70;8.02;;;;;;;24.67;36.17;94892.22;4947377;28;20047;-62
2024/03/27 07:29:10;;;;;;;31.38;5.22;;;;;;;21.88;37.58;94897.84;4949286;28;20053;-60
2024/03/27 07:31:35;;;;;;;64.50;8.18;;;;;;;24.61;36.77;94901.72;4946902;28;20039;-60
2024/03/27 07:34:00;;;;;;;28.17;5.40;;;;;;;29.06;30.56;94895.03;4951250;28;20279;-61
2024/03/27 07:36:26;;;;;;;33.45;5.90;;;;;;;27.87;30.72;94890.19;4949136;28;20464;-61
2024/03/27 07:38:51;;;;;;;34.78;5.85;;;;;;;28.81;30.58;94893.66;4946773;28;20031;-62
2024/03/27 07:41:16;;;;;;;26.83;5.55;;;;;;;28.50;29.75;94894.03;4949129;28;20664;-62
2024/03/27 07:43:42;;;;;;;52.58;7.85;;;;;;;27.51;30.57;94895.31;4947143;28;20150;-62
2024/03/27 07:46:07;;;;;;;29.30;5.97;;;;;;;29.33;28.93;94885.28;4946909;28;20367;-62
2024/03/27 07:48:34;;;;;;;41.80;6.75;;;;;;;26.24;31.55;94889.81;4945276;28;20114;-63
2024/03/27 07:51:00;;;;;;;28.73;5.53;;;;;;;26.80;30.83;94874.47;4947803;28;20035;-62
2024/03/27 07:53:26;;;;;;;39.83;5.90;;;;;;;26.95;31.51;94850.50;4946080;28;20040;-62
2024/03/27 07:55:55;;;;;;;38.95;6.05;;;;;;;25.83;32.68;94857.16;4947870;28;20281;-61
2024/03/27 07:58:20;;;;;;;28.10;5.47;;;;;;;26.05;32.27;94861.84;4948396;28;20031;-62
2024/03/27 08:00:45;;;;;;;66.05;8.43;;;;;;;27.89;30.31;94858.75;4946209;28;20047;-61
2024/03/27 08:03:11;;;;;;;36.03;6.05;;;;;;;28.28;29.32;94854.00;4948842;28;20055;-63
2024/03/27 08:05:36;;;;;;;56.80;7.63;;;;;;;28.56;29.21;94858.50;4944081;28;20126;-60
2024/03/27 08:08:01;;;;;;;34.20;6.05;;;;;;;27.22;30.64;94854.34;4948892;28;20045;-62
2024/03/27 08:10:29;;;;;;;41.70;6.18;;;;;;;26.04;31.68;94862.84;4946225;28;20108;-64
2024/03/27 08:12:54;;;;;;;36.45;6.32;;;;;;;26.17;31.43;94848.94;4946692;28;20586;-63
2024/03/27 08:15:20;;;;;;;30.85;5.35;;;;;;;25.84;31.97;94839.38;4947238;28;20033;-63
2024/03/27 08:17:45;;;;;;;73.75;8.60;;;;;;;24.50;33.54;94823.19;4947008;28;20078;-65
2024/03/27 08:20:11;;;;;;;43.38;6.35;;;;;;;23.27;35.41;94810.59;4946313;28;20479;-62
2024/03/27 08:22:36;;;;;;;67.95;8.30;;;;;;;23.90;35.52;94817.31;4947371;28;20049;-63
2024/03/27 08:25:02;;;;;;;50.45;6.65;;;;;;;25.20;34.03;94814.66;4947048;28;20028;-62
2024/03/27 08:27:28;;;;;;;33.88;5.40;;;;;;;25.06;33.30;94817.03;4947362;28;20038;-63
2024/03/27 08:29:53;;;;;;;42.65;6.05;;;;;;;25.74;33.25;94818.31;4946038;28;20035;-63
2024/03/27 08:32:19;;;;;;;46.35;6.32;;;;;;;25.79;32.90;94817.81;4947078;28;20035;-62
2024/03/27 08:34:44;;;;;;;63.92;8.55;;;;;;;27.49;30.73;94795.94;4947470;28;20479;-61
2024/03/27 08:37:10;;;;;;;33.60;5.78;;;;;;;27.93;30.09;94798.63;4947017;28;20127;-61
2024/03/27 08:39:35;;;;;;;52.13;7.30;;;;;;;27.31;30.60;94793.69;4944958;28;20026;-61
2024/03/27 08:42:00;;;;;;;33.65;6.43;;;;;;;25.37;32.67;94804.75;4945569;28;20535;-63
2024/03/27 08:44:26;;;;;;;31.25;5.45;;;;;;;24.83;32.77;94801.84;4945931;28;20026;-61
2024/03/27 08:46:51;;;;;;;74.18;8.75;;;;;;;26.74;31.93;94793.41;4943686;28;20043;-61
2024/03/27 08:49:16;;;;;;;31.63;5.50;;;;;;;28.58;29.29;94789.66;4946448;28;20030;-64
2024/03/27 08:51:42;;;;;;;64.78;8.05;;;;;;;27.87;29.56;94805.56;4945420;28;20046;-64
2024/03/27 08:54:07;;;;;;;40.92;5.85;;;;;;;29.12;28.46;94797.13;4946171;28;20102;-62
2024/03/27 08:56:33;;;;;;;37.65;5.90;;;;;;;27.65;29.32;94805.56;4945912;28;20140;-61
2024/03/27 08:58:58;;;;;;;31.85;5.15;;;;;;;29.19;27.96;94808.66;4945815;28;20226;-64
2024/03/27 09:01:23;;;;;;;34.58;5.60;;;;;;;28.72;28.23;94801.22;4947011;28;20047;-63
2024/03/27 09:03:49;;;;;;;55.67;9.00;;;;;;;27.16;29.94;94805.25;4944340;28;20422;-61
2024/03/27 09:06:14;;;;;;;36.97;6.68;;;;;;;26.81;30.41;94804.16;4947333;28;20611;-62
2024/03/27 09:08:40;;;;;;;66.10;8.65;;;;;;;26.44;30.43;94804.06;4946076;28;20343;-60
2024/03/27 09:11:09;;;;;;;43.28;6.50;;;;;;;25.81;31.28;94823.75;4946512;28;20035;-60
2024/03/27 09:13:35;;;;;;;43.10;6.35;;;;;;;26.44;30.86;94849.38;4947010;28;20535;-62
2024/03/27 09:16:01;;;;;;;42.22;6.63;;;;;;;24.36;33.27;94839.84;4945131;28;20037;-62
2024/03/27 09:18:28;;;;;;;56.50;19.30;;;;;;;24.52;33.04;94836.31;4945725;28;20187;-63
2024/03/27 09:20:54;;;;;;;73.60;8.43;;;;;;;26.31;31.43;94831.34;4945417;28;20031;-61
2024/03/27 09:23:21;;;;;;;35.20;5.60;;;;;;;26.56;31.08;94828.41;4946192;28;20031;-60
2024/03/27 09:25:56;;;;;;;69.65;8.70;;;;;;;25.74;31.79;94836.94;4943689;28;20712;-62
2024/03/27 09:28:23;;;;;;;31.30;5.85;;;;;;;24.52;33.02;94833.66;4947536;28;20039;-61
2024/03/27 09:30:49;;;;;;;65.70;8.02;;;;;;;21.94;36.38;94819.72;4944683;28;20070;-60
2024/03/27 09:33:15;;;;;;;42.83;6.68;;;;;;;21.29;38.32;94816.31;4946467;28;20031;-61
2024/03/27 09:35:45;;;;;;;62.67;13.85;;;;;;;19.93;40.07;94823.63;4946505;28;20097;-63
2024/03/27 09:38:11;;;;;;;64.13;25.10;;;;;;;19.04;41.79;94820.94;4945556;28;20081;-64
2024/03/27 09:40:54;;;;;;;75.75;24.15;;;;;;;19.84;41.58;94806.84;4947107;28;20035;-62
2024/03/27 09:43:21;;;;;;;31.95;5.55;;;;;;;20.57;40.51;94804.59;4947209;28;20022;-61
2024/03/27 09:45:47;;;;;;;75.03;8.38;;;;;;;20.77;40.46;94801.84;4948523;28;20158;-62
2024/03/27 09:49:04;;;;;;;68.53;8.07;;;;;;;21.40;38.70;94805.53;5035273;27;20419;-64
2024/03/27 09:51:33;;;;;;;57.03;7.32;;;;;;;22.26;38.10;94798.94;5023389;28;20104;-68
2024/03/27 09:54:10;;;;;;;49.83;7.25;;;;;;;24.25;34.71;94798.53;5002642;28;20160;-64
2024/03/27 09:56:37;;;;;;;43.97;6.53;;;;;;;24.21;34.45;94794.56;5016067;28;20361;-67
2024/03/27 09:59:03;;;;;;;46.17;6.57;;;;;;;26.09;32.28;94813.38;5021753;28;20393;-67
2024/03/27 10:01:29;;;;;;;36.95;6.45;;;;;;;25.73;31.76;94808.69;5023464;28;20037;-68
2024/03/27 10:03:56;;;;;;;58.08;10.00;;;;;;;25.28;32.44;94819.94;5022928;28;20040;-66
2024/03/27 10:06:23;;;;;;;35.38;6.90;;;;;;;23.96;34.47;94807.84;5024040;28;20493;-67
2024/03/27 10:08:49;;;;;;;64.78;7.95;;;;;;;23.23;35.98;94817.19;5023317;28;20017;-67
2024/03/27 10:11:15;;;;;;;57.47;13.20;;;;;;;21.85;37.68;94822.28;5023937;28;20417;-66
2024/03/27 10:13:40;;;;;;;44.33;6.80;;;;;;;21.13;39.34;94817.81;5025498;28;20223;-67
2024/03/27 10:16:09;;;;;;;50.28;12.18;;;;;;;20.39;40.29;94804.53;5024594;28;20387;-68
2024/03/27 10:18:37;;;;;;;69.72;15.93;;;;;;;20.06;41.50;94802.25;5023167;28;20504;-66
2024/03/27 10:21:03;;;;;;;102.22;40.50;;;;;;;19.38;43.10;94807.44;5020868;28;20262;-66
2024/03/27 10:23:29;;;;;;;68.07;12.40;;;;;;;19.20;43.94;94798.56;5022903;28;20078;-60
2024/03/27 10:25:54;;;;;;;91.85;10.18;;;;;;;18.97;45.57;94791.69;5023170;28;20091;-61
2024/03/27 10:28:19;;;;;;;45.63;6.63;;;;;;;18.94;45.66;94784.09;5025144;28;20393;-60
2024/03/27 10:30:44;;;;;;;77.85;15.10;;;;;;;18.90;45.96;94787.97;5021351;28;20041;-60
2024/03/27 10:33:10;;;;;;;61.60;7.90;;;;;;;19.43;45.51;94777.19;5025214;28;20505;-61
2024/03/27 10:35:36;;;;;;;58.47;7.35;;;;;;;19.42;45.65;94775.53;5023182;28;20188;-59
2024/03/27 10:38:02;;;;;;;69.57;8.65;;;;;;;19.48;45.54;94780.25;5023754;28;20028;-59
2024/03/27 10:40:28;;;;;;;62.95;7.72;;;;;;;19.61;45.79;94778.19;5026753;28;20022;-59
2024/03/27 10:43:03;;;;;;;57.70;7.35;;;;;;;19.41;46.18;94766.78;5024138;28;20045;-62
2024/03/27 10:45:37;;;;;;;41.75;6.45;;;;;;;19.48;46.22;94760.00;5023129;28;20048;-60
2024/03/27 10:48:03;;;;;;;75.07;8.00;;;;;;;19.48;46.16;94767.06;5009507;28;20018;-62
2024/03/27 10:50:31;;;;;;;70.45;7.88;;;;;;;19.85;46.10;94755.78;5020037;28;20052;-62
2024/03/27 10:52:59;;;;;;;100.15;10.63;;;;;;;19.49;46.75;94759.03;5020277;28;20026;-58
2024/03/27 10:55:24;;;;;;;42.53;5.95;;;;;;;19.45;47.58;94759.47;5024665;28;20124;-58
2024/03/27 10:57:51;;;;;;;86.97;9.00;;;;;;;19.88;48.08;94763.41;5021729;28;20457;-61
2024/03/27 11:00:17;;;;;;;54.15;7.15;;;;;;;19.92;48.30;94760.50;5011616;28;20029;-63
2024/03/27 11:02:50;;;;;;;46.47;6.78;;;;;;;19.98;47.88;94767.84;5009878;28;20053;-61
2024/03/27 11:05:17;;;;;;;52.47;7.28;;;;;;;20.08;47.29;94760.75;5009207;28;20021;-62
2024/03/27 11:07:43;;;;;;;63.33;8.23;;;;;;;20.78;45.71;94755.97;5010050;28;20021;-64
2024/03/27 11:10:10;;;;;;;69.22;8.35;;;;;;;21.25;45.42;94749.72;5009312;28;20052;-64
2024/03/27 11:12:36;;;;;;;55.20;7.13;;;;;;;21.01;45.39;94755.59;5010537;28;20398;-61
2024/03/27 11:15:05;;;;;;;77.00;8.60;;;;;;;20.66;45.54;94760.63;5011053;28;21520;-63
2024/03/27 11:17:31;;;;;;;53.22;7.05;;;;;;;21.03;45.14;94759.75;5010076;28;20344;-62